Time;durP1;ratioP1;P1;durP2;ratioP2;P2;SDS_P1;SDS_P2;PMS_P1;PMS_P2;Temp;Humidity;BMP_temperature;BMP_pressure;BME280_temperature;BME280_humidity;BME280_pressure;Samples;Min_cycle;Max_cycle;Signal;HPM_P1;HPM_P2
2022/10/03 00:03:11;;;;;;;23.50;6.07;;;;;;;20.69;95.75;99093.56;10418308;28;20203;-71
2022/10/03 00:08:42;;;;;;;27.70;8.15;;;;;;;20.60;95.88;99079.75;10419120;28;20052;-71
2022/10/03 00:14:30;;;;;;;26.30;7.13;;;;;;;20.72;96.63;99093.03;10418990;28;20037;-72
2022/10/03 00:20:05;;;;;;;26.80;6.45;;;;;;;20.95;96.02;99151.13;10417334;28;20518;-71
2022/10/03 00:25:40;;;;;;;25.83;5.63;;;;;;;20.97;96.64;99149.81;10418606;28;20041;-71
2022/10/03 00:31:16;;;;;;;22.00;5.43;;;;;;;20.40;96.91;99064.31;10417805;28;20046;-71
2022/10/03 00:36:44;;;;;;;21.52;5.22;;;;;;;20.91;97.37;99144.63;10416818;28;20049;-71
2022/10/03 00:41:54;;;;;;;26.83;5.93;;;;;;;20.59;96.88;99115.13;10417490;28;20128;-71
2022/10/03 00:47:28;;;;;;;22.42;5.03;;;;;;;20.91;96.83;99169.75;10416202;28;20398;-71
2022/10/03 00:52:59;;;;;;;22.60;6.00;;;;;;;20.91;96.53;99191.34;10384044;28;20066;-71
2022/10/03 00:58:26;;;;;;;21.98;5.30;;;;;;;20.37;95.16;99139.50;10375165;28;20067;-70
2022/10/03 01:03:59;;;;;;;26.85;5.20;;;;;;;20.80;94.38;99219.38;10395640;28;20056;-70
2022/10/03 01:09:05;;;;;;;26.02;5.07;;;;;;;20.30;95.54;99162.13;10414843;28;20052;-69
2022/10/03 01:14:25;;;;;;;22.40;5.57;;;;;;;20.74;96.24;99244.72;10415777;28;20057;-69
2022/10/03 01:19:50;;;;;;;19.45;4.53;;;;;;;20.22;95.29;99186.06;10398939;28;20133;-69
2022/10/03 01:24:58;;;;;;;18.77;4.20;;;;;;;20.64;94.98;99312.09;10374460;28;20049;-69
2022/10/03 01:30:23;;;;;;;22.77;5.07;;;;;;;20.16;95.91;99249.13;10374406;28;20092;-68
2022/10/03 01:35:42;;;;;;;19.23;4.47;;;;;;;20.51;94.44;99316.84;10374603;28;20077;-69
2022/10/03 01:40:59;;;;;;;31.80;5.38;;;;;;;20.51;97.01;99307.94;10373790;28;20057;-69
2022/10/03 01:46:16;;;;;;;21.65;4.82;;;;;;;20.50;96.81;99328.72;10374732;28;20136;-69
2022/10/03 01:51:33;;;;;;;32.70;5.45;;;;;;;20.45;95.81;99334.06;10374431;28;20112;-69
2022/10/03 01:56:43;;;;;;;22.30;4.82;;;;;;;20.31;96.95;99340.94;10373750;28;20176;-69
2022/10/03 02:02:00;;;;;;;25.90;5.50;;;;;;;20.18;97.68;99334.09;10373708;28;20048;-68
2022/10/03 02:07:20;;;;;;;20.40;5.15;;;;;;;20.06;96.15;99331.56;10373060;28;20109;-69
2022/10/03 02:12:21;;;;;;;19.67;5.00;;;;;;;19.46;96.32;99243.59;10372889;28;20050;-69
2022/10/03 02:17:29;;;;;;;21.10;5.47;;;;;;;19.86;97.08;99317.06;10398781;28;20102;-69
2022/10/03 02:22:53;;;;;;;15.85;4.15;;;;;;;19.83;100.00;99334.53;10372515;28;20056;-69
2022/10/03 02:28:21;;;;;;;20.13;4.13;;;;;;;19.74;100.00;99346.84;10376999;28;20167;-69
2022/10/03 02:33:42;;;;;;;25.20;5.57;;;;;;;19.64;98.66;99347.50;10412887;28;20048;-69
2022/10/03 02:39:01;;;;;;;19.58;4.40;;;;;;;19.21;100.00;99303.38;10413021;28;20128;-69
2022/10/03 02:44:19;;;;;;;23.35;4.75;;;;;;;19.00;100.00;99294.22;10409696;28;20038;-69
2022/10/03 02:49:50;;;;;;;23.60;4.65;;;;;;;19.44;100.00;99376.88;10373224;28;20513;-69
2022/10/03 02:54:57;;;;;;;28.73;5.72;;;;;;;19.34;100.00;99385.66;10372395;28;20058;-70
2022/10/03 03:00:06;;;;;;;18.58;4.63;;;;;;;18.99;100.00;99367.94;10389180;28;20128;-69
2022/10/03 03:05:41;;;;;;;22.80;5.50;;;;;;;19.22;100.00;99414.56;10385522;28;20049;-69
2022/10/03 03:11:05;;;;;;;20.58;4.63;;;;;;;19.15;100.00;99450.56;10382548;28;20410;-69
2022/10/03 03:16:27;;;;;;;21.15;5.13;;;;;;;19.04;100.00;99451.44;10379805;28;20046;-69
2022/10/03 03:21:50;;;;;;;27.58;5.93;;;;;;;18.99;100.00;99475.59;10371271;28;20078;-69
2022/10/03 03:26:56;;;;;;;20.20;4.87;;;;;;;18.96;100.00;99486.84;10371240;28;20041;-69
2022/10/03 03:32:36;;;;;;;17.08;5.15;;;;;;;18.98;100.00;99511.66;10372080;28;20406;-69
2022/10/03 03:38:07;;;;;;;32.15;5.50;;;;;;;19.05;100.00;99503.41;10358889;28;20046;-69
2022/10/03 03:43:33;;;;;;;25.38;5.03;;;;;;;18.90;100.00;99474.34;10370998;28;20037;-69
2022/10/03 03:49:05;;;;;;;20.40;5.15;;;;;;;19.12;100.00;99536.38;10371936;28;20520;-69
2022/10/03 03:54:34;;;;;;;82.82;54.30;;;;;;;19.04;100.00;99537.59;10372468;28;20061;-69
2022/10/03 04:00:19;;;;;;;43.83;26.40;;;;;;;19.11;100.00;99565.16;10377620;28;20502;-69
2022/10/03 04:05:45;;;;;;;29.05;11.55;;;;;;;19.14;100.00;99580.00;10367306;28;20414;-69
2022/10/03 04:11:11;;;;;;;57.72;31.80;;;;;;;19.21;100.00;99596.03;10375868;28;20037;-72
2022/10/03 04:22:14;;;;;;;317.08;213.52;;;;;;;18.87;100.00;99539.44;10409732;28;20041;-68
2022/10/03 04:27:33;;;;;;;483.45;314.90;;;;;;;19.36;100.00;99636.69;10382252;28;20045;-68
2022/10/03 04:32:56;;;;;;;219.90;125.30;;;;;;;19.48;99.55;99655.47;10375017;28;20041;-71
2022/10/03 04:38:31;;;;;;;105.33;59.37;;;;;;;19.59;95.62;99666.19;10375161;28;20151;-71
2022/10/03 04:43:43;;;;;;;227.13;121.00;;;;;;;19.71;92.24;99679.59;10376439;28;20061;-71
2022/10/03 04:48:50;;;;;;;105.82;58.67;;;;;;;19.78;90.96;99699.13;10375742;28;20049;-70
2022/10/03 04:54:29;;;;;;;27.75;15.88;;;;;;;19.76;85.75;99673.47;10376133;28;20081;-70
2022/10/03 04:59:54;;;;;;;164.88;89.78;;;;;;;19.95;84.82;99693.75;10405626;28;20413;-70
2022/10/03 05:05:12;;;;;;;54.53;27.67;;;;;;;20.00;84.96;99709.19;10415468;28;20497;-72
2022/10/03 05:10:43;;;;;;;116.32;59.85;;;;;;;19.82;83.07;99677.88;10416590;28;20129;-70
2022/10/03 05:16:14;;;;;;;54.95;31.95;;;;;;;19.88;81.83;99676.91;10416692;28;20056;-70
2022/10/03 05:21:30;;;;;;;30.15;14.70;;;;;;;20.41;79.93;99769.97;10416167;28;20038;-72
2022/10/03 05:26:58;;;;;;;20.30;8.65;;;;;;;20.46;79.32;99783.53;10416108;28;20037;-69
2022/10/03 05:32:26;;;;;;;10.93;4.28;;;;;;;20.24;78.55;99751.06;10415161;28;20084;-69
2022/10/03 05:37:41;;;;;;;7.78;3.13;;;;;;;20.15;78.00;99722.88;10414906;28;20075;-69
2022/10/03 05:42:48;;;;;;;11.23;4.40;;;;;;;20.61;78.05;99798.31;10414719;28;20049;-68
2022/10/03 05:48:07;;;;;;;9.10;3.67;;;;;;;20.63;77.48;99804.31;10415160;28;20048;-70
2022/10/03 05:53:31;;;;;;;18.70;10.75;;;;;;;20.23;76.75;99765.63;10415063;28;20053;-68
2022/10/03 05:59:11;;;;;;;12.80;7.03;;;;;;;20.31;76.57;99772.47;10414809;28;20417;-70
2022/10/03 06:04:40;;;;;;;17.73;3.10;;;;;;;20.38;76.21;99773.16;10414858;28;20585;-70
2022/10/03 06:10:16;;;;;;;11.65;1.58;;;;;;;20.64;74.44;99820.25;10414513;28;20497;-70
2022/10/03 06:15:42;;;;;;;5.85;2.50;;;;;;;20.87;73.94;99875.09;10413995;28;20038;-71
2022/10/03 06:21:13;;;;;;;3.85;0.80;;;;;;;20.84;73.60;99871.03;10413960;28;20490;-70
2022/10/03 06:26:27;;;;;;;11.57;1.20;;;;;;;20.78;74.41;99863.91;10413724;28;20064;-69
2022/10/03 06:31:40;;;;;;;9.30;1.65;;;;;;;20.65;74.31;99870.47;10413967;28;20044;-70
2022/10/03 06:37:18;;;;;;;4.80;0.97;;;;;;;20.10;74.34;99814.47;10414006;28;20049;-72
2022/10/03 06:42:52;;;;;;;9.70;2.90;;;;;;;20.42;74.18;99901.06;10412849;28;20042;-72
2022/10/03 06:47:56;;;;;;;5.97;0.90;;;;;;;20.32;74.41;99892.81;10413341;28;20042;-70
2022/10/03 06:53:15;;;;;;;84.38;41.72;;;;;;;20.35;72.45;99908.53;10413101;28;20073;-69
2022/10/03 06:58:27;;;;;;;25.52;12.95;;;;;;;20.31;72.26;99923.53;10413130;28;20045;-68
2022/10/03 07:03:59;;;;;;;21.42;6.63;;;;;;;20.38;72.59;99935.00;10412373;28;20461;-68
2022/10/03 07:09:23;;;;;;;11.32;1.75;;;;;;;20.27;71.74;99933.19;10412203;28;20040;-70
2022/10/03 07:14:54;;;;;;;13.48;4.70;;;;;;;20.24;71.75;99937.19;10412616;28;20045;-71
2022/10/03 07:20:37;;;;;;;8.23;3.58;;;;;;;20.36;69.38;99958.69;10412612;28;20076;-72
2022/10/03 07:26:06;;;;;;;21.88;7.22;;;;;;;20.26;68.57;99961.22;10410866;28;20053;-69
2022/10/03 07:31:25;;;;;;;2.78;1.50;;;;;;;20.48;67.98;100005.31;10417980;28;20038;-68
2022/10/03 07:42:06;;;;;;;5.75;1.38;;;;;;;20.63;66.55;100039.91;10420003;28;20041;-69
2022/10/03 07:47:52;;;;;;;10.77;5.03;;;;;;;20.49;67.97;100041.22;10420449;28;20603;-69
2022/10/03 07:53:14;;;;;;;29.63;16.75;;;;;;;20.27;68.58;100055.38;10419593;28;20065;-70
2022/10/03 07:58:52;;;;;;;83.25;52.30;;;;;;;19.60;71.47;99993.81;10419522;28;20045;-70
2022/10/03 08:04:26;;;;;;;27.55;16.17;;;;;;;19.69;74.50;100071.66;10418759;28;20053;-71
2022/10/03 08:09:50;;;;;;;38.10;19.83;;;;;;;19.38;78.92;100070.88;10419197;28;20403;-72
2022/10/03 08:15:05;;;;;;;20.05;7.60;;;;;;;18.83;80.28;100014.59;10418247;28;20537;-70
2022/10/03 08:20:18;;;;;;;8.70;3.90;;;;;;;19.11;84.19;100059.72;10418147;28;20424;-71
2022/10/03 08:25:39;;;;;;;8.47;2.83;;;;;;;19.02;85.75;100075.38;10417803;28;20107;-70
2022/10/03 08:31:04;;;;;;;5.13;2.15;;;;;;;18.98;87.42;100068.00;10418259;28;20044;-70
2022/10/03 08:36:11;;;;;;;6.85;2.08;;;;;;;19.00;90.32;100068.59;10417419;28;20565;-70
2022/10/03 08:41:30;;;;;;;8.65;2.25;;;;;;;18.93;88.15;100058.75;10417362;28;20041;-70
2022/10/03 08:47:01;;;;;;;5.82;1.67;;;;;;;18.54;92.03;100008.97;10417110;28;20049;-70
2022/10/03 08:52:11;;;;;;;2.72;1.50;;;;;;;18.84;91.18;100060.09;10417080;28;20148;-69
2022/10/03 08:57:21;;;;;;;5.25;2.22;;;;;;;18.90;91.03;100069.94;10417208;28;20041;-70
2022/10/03 09:02:52;;;;;;;14.63;4.57;;;;;;;18.81;89.59;100062.44;10416949;28;20045;-70
2022/10/03 09:07:59;;;;;;;145.85;70.15;;;;;;;18.81;92.67;100095.53;10416794;28;20033;-71
2022/10/03 09:13:26;;;;;;;18.08;10.32;;;;;;;18.88;93.66;100088.22;10416081;28;20124;-71
2022/10/03 09:18:45;;;;;;;12.90;7.15;;;;;;;18.90;93.92;100085.28;10415839;28;20144;-69
2022/10/03 09:24:09;;;;;;;20.45;7.88;;;;;;;18.93;93.34;100111.75;10415594;28;20049;-68
2022/10/03 09:29:43;;;;;;;12.15;5.45;;;;;;;18.57;94.06;100067.69;10415575;28;20048;-70
2022/10/03 09:34:59;;;;;;;17.02;10.27;;;;;;;18.42;90.07;100075.34;10415833;28;20493;-69
2022/10/03 09:40:26;;;;;;;15.65;5.13;;;;;;;18.73;94.41;100135.41;10415602;28;20117;-69
2022/10/03 09:46:04;;;;;;;18.50;5.70;;;;;;;18.70;93.97;100142.06;10415197;28;20087;-69
2022/10/03 09:51:37;;;;;;;3.67;2.15;;;;;;;18.36;92.14;100095.06;10414517;28;20046;-69
2022/10/03 09:57:09;;;;;;;5.82;2.17;;;;;;;18.89;89.75;100165.22;10414143;28;20057;-69
2022/10/03 10:02:24;;;;;;;13.50;6.28;;;;;;;18.95;90.42;100150.03;10414020;28;20045;-71
2022/10/03 10:07:49;;;;;;;5.18;2.78;;;;;;;19.10;90.35;100149.63;10413861;28;20167;-68
2022/10/03 10:12:50;;;;;;;15.90;5.30;;;;;;;19.28;88.14;100149.56;10413860;28;20521;-69
2022/10/03 10:17:52;;;;;;;17.00;8.07;;;;;;;19.46;86.87;100153.25;10414152;28;20053;-70
2022/10/03 10:22:59;;;;;;;5.45;2.60;;;;;;;19.43;84.50;100164.47;10413836;28;20055;-68
2022/10/03 10:28:00;;;;;;;7.70;2.20;;;;;;;19.10;85.53;100087.69;10413303;28;20073;-69
2022/10/03 10:33:07;;;;;;;5.80;2.38;;;;;;;19.79;84.91;100166.19;10413750;28;20569;-69
2022/10/03 10:38:50;;;;;;;10.05;2.38;;;;;;;19.92;81.64;100103.97;10413480;28;20038;-72
2022/10/03 10:44:20;;;;;;;3.33;1.55;;;;;;;20.65;80.53;100170.03;10411363;28;20622;-68
2022/10/03 10:49:38;;;;;;;14.75;5.32;;;;;;;20.75;78.21;100164.03;10413115;28;20037;-71
2022/10/03 10:55:02;;;;;;;5.95;2.38;;;;;;;20.70;78.55;100162.06;10413688;28;20168;-71
2022/10/03 11:00:17;;;;;;;4.07;1.67;;;;;;;20.19;78.21;100103.47;10412335;28;20141;-71
2022/10/03 11:05:42;;;;;;;3.28;1.75;;;;;;;20.78;76.27;100168.94;10419216;28;20099;-69
2022/10/03 11:10:58;;;;;;;18.58;3.90;;;;;;;20.67;74.94;100175.19;10421410;28;20046;-69
2022/10/03 11:16:05;;;;;;;3.08;1.90;;;;;;;20.54;77.02;100173.59;10420499;28;20056;-69
2022/10/03 11:21:24;;;;;;;10.43;2.65;;;;;;;20.05;76.95;100097.53;10420434;28;20040;-69
2022/10/03 11:27:06;;;;;;;8.27;1.63;;;;;;;19.98;76.06;100113.84;10420056;28;20041;-70
2022/10/03 11:32:31;;;;;;;7.65;4.13;;;;;;;20.18;75.83;100180.06;10419175;28;20421;-70
2022/10/03 11:37:39;;;;;;;5.10;2.10;;;;;;;19.94;76.14;100184.63;10420766;28;20396;-69
2022/10/03 11:43:17;;;;;;;15.55;5.07;;;;;;;20.27;74.70;100178.63;10419445;28;20045;-69
2022/10/03 11:48:25;;;;;;;20.73;5.75;;;;;;;20.88;72.42;100177.25;10420234;28;20048;-70
2022/10/03 11:53:35;;;;;;;25.05;7.50;;;;;;;20.83;69.78;100150.16;10420269;28;20536;-70
2022/10/03 11:59:08;;;;;;;19.00;9.25;;;;;;;20.90;71.05;100174.31;10419527;28;20083;-69
2022/10/03 12:04:56;;;;;;;9.75;6.00;;;;;;;20.62;72.38;100175.09;10418888;28;20068;-71
2022/10/03 12:10:01;;;;;;;17.23;6.78;;;;;;;20.34;72.04;100178.50;10416584;28;20049;-70
2022/10/03 12:15:37;;;;;;;19.65;10.05;;;;;;;20.25;71.55;100173.50;10407331;28;20052;-70
2022/10/03 12:20:57;;;;;;;28.55;21.63;;;;;;;20.20;69.85;100175.25;10410958;28;20124;-70
2022/10/03 12:42:29;;;;;;;5.90;2.47;;;;;;;19.91;69.78;100172.44;10531506;28;20418;-69
2022/10/03 12:47:33;;;;;;;15.45;3.85;;;;;;;19.94;70.61;100193.53;10505227;28;20417;-69
2022/10/03 12:52:48;;;;;;;6.90;3.58;;;;;;;19.84;71.57;100171.72;10468608;28;20530;-70
2022/10/03 12:58:17;;;;;;;13.80;3.42;;;;;;;19.96;72.54;100191.44;10449821;28;20083;-71
2022/10/03 13:03:51;;;;;;;17.88;4.40;;;;;;;19.87;71.75;100194.72;10448401;28;20520;-70
2022/10/03 13:09:17;;;;;;;23.23;6.10;;;;;;;20.00;74.03;100197.97;10448848;28;20044;-70
2022/10/03 13:15:02;;;;;;;17.42;4.30;;;;;;;20.06;73.52;100191.66;10451704;28;20041;-70
2022/10/03 13:20:27;;;;;;;27.73;3.65;;;;;;;20.04;75.35;100209.97;10459564;28;20535;-69
2022/10/03 13:26:08;;;;;;;16.80;3.97;;;;;;;20.02;71.56;100212.06;10450449;28;20045;-71
2022/10/03 13:31:17;;;;;;;22.98;3.38;;;;;;;19.86;72.77;100214.59;10445027;28;20420;-70
2022/10/03 13:36:54;;;;;;;10.45;2.72;;;;;;;19.82;71.71;100217.78;10488256;28;20492;-70
2022/10/03 13:41:58;;;;;;;13.32;2.63;;;;;;;19.29;74.08;100156.56;10489543;28;20496;-69
2022/10/03 13:47:14;;;;;;;21.25;3.53;;;;;;;19.63;74.99;100218.06;10467467;28;20037;-69
2022/10/03 13:52:29;;;;;;;30.48;3.42;;;;;;;19.18;75.68;100151.19;10452013;28;20037;-70
2022/10/03 13:57:41;;;;;;;14.80;3.50;;;;;;;18.79;74.96;100108.44;10455359;28;20151;-72
2022/10/03 14:02:58;;;;;;;10.55;3.35;;;;;;;19.48;76.09;100227.38;10451716;28;20124;-71
2022/10/03 14:08:08;;;;;;;12.38;3.35;;;;;;;18.95;76.61;100157.28;10432746;28;20049;-70
2022/10/03 14:13:37;;;;;;;77.03;6.25;;;;;;;19.30;82.98;100232.84;10420349;28;20045;-70
2022/10/03 14:18:45;;;;;;;15.80;3.22;;;;;;;18.95;84.22;100249.63;10436201;28;20041;-72
2022/10/03 14:24:05;;;;;;;17.75;3.70;;;;;;;18.68;88.73;100246.38;10415633;28;20043;-72
2022/10/03 14:29:22;;;;;;;21.33;3.83;;;;;;;18.37;92.65;100244.63;10427826;28;20045;-73
2022/10/03 14:34:41;;;;;;;34.72;4.50;;;;;;;18.12;90.94;100250.84;10438185;28;20041;-71
2022/10/03 14:40:06;;;;;;;23.33;3.55;;;;;;;18.00;97.78;100260.66;10459656;28;20064;-69
2022/10/03 14:45:14;;;;;;;11.77;4.05;;;;;;;17.87;96.62;100260.78;10458162;28;20052;-71
2022/10/03 14:50:19;;;;;;;13.98;4.05;;;;;;;17.87;97.58;100264.28;10444687;28;20404;-71
2022/10/03 14:55:27;;;;;;;8.25;3.75;;;;;;;17.74;100.00;100254.41;10456714;28;20044;-73
2022/10/03 15:00:48;;;;;;;7.93;4.47;;;;;;;17.86;100.00;100269.84;10457498;28;20384;-70
2022/10/03 15:06:09;;;;;;;13.82;9.55;;;;;;;17.79;100.00;100294.91;10456586;28;20049;-70
2022/10/03 15:11:14;;;;;;;13.05;7.05;;;;;;;17.18;100.00;100206.81;10457063;28;20045;-70
2022/10/03 15:16:18;;;;;;;20.90;6.50;;;;;;;17.71;100.00;100292.47;10455997;28;20049;-71
2022/10/03 15:21:20;;;;;;;11.15;5.25;;;;;;;17.58;100.00;100276.41;10456797;28;20630;-70
2022/10/03 15:26:24;;;;;;;7.45;4.55;;;;;;;17.30;100.00;100229.25;10457291;28;20056;-70
2022/10/03 15:31:31;;;;;;;7.85;4.97;;;;;;;17.69;100.00;100299.91;10456443;28;20052;-71
2022/10/03 15:36:40;;;;;;;7.15;5.25;;;;;;;17.23;100.00;100236.53;10456308;28;20071;-71
2022/10/03 15:41:54;;;;;;;8.88;4.68;;;;;;;17.42;100.00;100266.19;10455439;28;20071;-70
2022/10/03 15:47:00;;;;;;;6.85;3.85;;;;;;;17.58;100.00;100314.00;10442102;28;20048;-70
2022/10/03 15:52:38;;;;;;;8.38;4.75;;;;;;;17.66;100.00;100308.41;10517321;28;20048;-71
2022/10/03 15:57:47;;;;;;;5.93;4.35;;;;;;;17.63;100.00;100310.69;10509106;28;20048;-68
2022/10/03 16:02:54;;;;;;;11.88;6.85;;;;;;;17.13;100.00;100238.84;10516767;28;20036;-66
2022/10/03 16:07:58;;;;;;;19.98;13.65;;;;;;;17.18;100.00;100244.41;10529747;28;20101;-68
2022/10/03 16:13:24;;;;;;;25.92;19.52;;;;;;;17.71;100.00;100322.03;10505671;28;20047;-67
2022/10/03 16:18:47;;;;;;;28.00;18.83;;;;;;;17.73;100.00;100321.78;10496069;28;20044;-69
2022/10/03 16:23:51;;;;;;;22.10;14.25;;;;;;;17.58;100.00;100305.94;10531094;28;20036;-72
2022/10/03 16:29:21;;;;;;;21.48;14.30;;;;;;;17.71;100.00;100323.84;10512338;28;20048;-71
2022/10/03 16:34:24;;;;;;;24.45;14.85;;;;;;;17.65;100.00;100324.72;10493337;28;20052;-71
2022/10/03 16:40:02;;;;;;;27.10;15.13;;;;;;;17.53;100.00;100309.31;10515852;28;20415;-70
2022/10/03 16:45:05;;;;;;;19.73;14.07;;;;;;;17.62;100.00;100326.00;10515636;28;20427;-71
2022/10/03 16:50:26;;;;;;;22.73;14.45;;;;;;;17.55;100.00;100309.06;10519091;28;20044;-71
2022/10/03 16:55:51;;;;;;;17.77;13.52;;;;;;;17.65;100.00;100327.41;10494888;28;20041;-70
2022/10/03 17:01:06;;;;;;;17.50;13.65;;;;;;;17.36;100.00;100293.91;10505045;28;20082;-70
2022/10/03 17:06:18;;;;;;;17.75;13.32;;;;;;;17.65;100.00;100351.56;10494768;28;20106;-70
2022/10/03 17:11:25;;;;;;;20.17;12.63;;;;;;;17.51;100.00;100318.59;10506534;28;20131;-72
2022/10/03 17:16:46;;;;;;;21.02;12.15;;;;;;;17.50;100.00;100325.00;10495712;28;20044;-70
2022/10/03 17:21:53;;;;;;;19.17;14.57;;;;;;;17.41;100.00;100334.34;10507061;28;20071;-69
2022/10/03 17:27:00;;;;;;;23.80;14.13;;;;;;;17.54;100.00;100353.91;10510015;28;20043;-70
2022/10/03 17:32:09;;;;;;;22.02;13.60;;;;;;;17.13;100.00;100287.16;10512275;28;20503;-71
2022/10/03 17:37:43;;;;;;;17.70;13.00;;;;;;;17.68;100.00;100359.22;10530790;28;20052;-71
2022/10/03 17:42:50;;;;;;;19.63;13.63;;;;;;;17.58;100.00;100357.00;10536379;28;20060;-70
2022/10/03 17:47:56;;;;;;;18.35;14.25;;;;;;;17.53;100.00;100354.16;10541935;28;20043;-70
2022/10/03 17:52:59;;;;;;;14.13;10.95;;;;;;;17.39;100.00;100337.25;10538476;28;20040;-70
2022/10/03 17:58:05;;;;;;;15.85;8.70;;;;;;;17.38;100.00;100340.97;10507433;28;20534;-70
2022/10/03 18:03:31;;;;;;;9.05;7.70;;;;;;;17.51;100.00;100348.97;10531381;28;20032;-71
2022/10/03 18:08:37;;;;;;;14.23;8.13;;;;;;;17.47;100.00;100357.66;10483696;28;20052;-70
2022/10/03 18:13:46;;;;;;;13.75;7.38;;;;;;;17.33;100.00;100311.25;10480103;28;20041;-70
2022/10/03 18:19:19;;;;;;;14.73;7.97;;;;;;;17.22;100.00;100293.13;10473340;28;20036;-69
2022/10/03 18:24:30;;;;;;;13.10;7.72;;;;;;;17.33;100.00;100312.06;10471115;28;20051;-69
2022/10/03 18:29:50;;;;;;;14.75;7.40;;;;;;;16.97;100.00;100244.72;10457093;28;20040;-69
2022/10/03 18:35:19;;;;;;;11.48;6.30;;;;;;;17.39;100.00;100314.94;10456981;28;20049;-70
2022/10/03 18:40:32;;;;;;;13.63;6.38;;;;;;;17.42;100.00;100320.72;10457924;28;20092;-70
2022/10/03 18:45:42;;;;;;;9.53;5.30;;;;;;;17.30;100.00;100288.34;10458310;28;20044;-69
2022/10/03 18:51:23;;;;;;;9.13;5.00;;;;;;;17.18;100.00;100279.31;10457437;28;20063;-69
2022/10/03 18:56:25;;;;;;;6.65;4.03;;;;;;;17.29;100.00;100310.84;10468288;28;20519;-69
2022/10/03 19:01:33;;;;;;;5.95;4.00;;;;;;;17.29;100.00;100321.59;10456419;28;20052;-70
2022/10/03 19:06:37;;;;;;;11.32;3.97;;;;;;;17.34;100.00;100308.34;10457426;28;20029;-70
2022/10/03 19:12:04;;;;;;;8.02;4.20;;;;;;;17.19;100.00;100264.00;10455650;28;20045;-70
2022/10/03 19:17:14;;;;;;;8.25;4.10;;;;;;;17.33;100.00;100295.97;10457079;28;20126;-70
2022/10/03 19:22:20;;;;;;;14.02;4.70;;;;;;;17.36;100.00;100291.22;10456745;28;20036;-70
2022/10/03 19:27:39;;;;;;;8.02;4.50;;;;;;;17.37;100.00;100295.53;10456238;28;20489;-70
2022/10/03 19:32:41;;;;;;;7.65;4.50;;;;;;;16.81;100.00;100211.09;10456215;28;20510;-68
2022/10/03 19:37:48;;;;;;;4.97;3.55;;;;;;;17.24;100.00;100285.69;10469558;28;20078;-69
2022/10/03 19:42:58;;;;;;;8.30;4.53;;;;;;;17.11;100.00;100267.75;10489109;28;20076;-70
2022/10/03 19:48:07;;;;;;;5.53;4.30;;;;;;;17.11;100.00;100279.34;10461682;28;20118;-70
2022/10/03 19:53:16;;;;;;;10.00;4.97;;;;;;;17.06;100.00;100273.78;10455764;28;20041;-71
2022/10/03 19:58:21;;;;;;;5.82;4.70;;;;;;;16.97;100.00;100253.56;10456006;28;20044;-70
2022/10/03 20:03:31;;;;;;;5.80;4.32;;;;;;;17.13;100.00;100257.63;10488446;28;20094;-69
2022/10/03 20:08:38;;;;;;;12.55;4.80;;;;;;;16.99;100.00;100234.56;10486291;28;20158;-70
2022/10/03 20:13:45;;;;;;;8.32;4.13;;;;;;;16.94;100.00;100229.03;10487888;28;20041;-70
2022/10/03 20:18:50;;;;;;;7.80;3.63;;;;;;;17.07;100.00;100247.75;10455202;28;20501;-69
2022/10/03 20:23:53;;;;;;;6.03;3.83;;;;;;;17.03;100.00;100239.31;10453806;28;20052;-69
2022/10/03 20:29:19;;;;;;;5.63;3.93;;;;;;;17.04;100.00;100226.72;10453921;28;20040;-70
2022/10/03 20:34:23;;;;;;;9.27;4.53;;;;;;;16.57;100.00;100162.50;10454104;28;20114;-69
2022/10/03 20:39:30;;;;;;;7.60;4.03;;;;;;;16.88;100.00;100215.41;10457037;28;20057;-70
2022/10/03 20:44:44;;;;;;;7.25;3.85;;;;;;;16.95;100.00;100244.09;10462971;28;20520;-69
2022/10/03 20:49:51;;;;;;;;;;;;;;;17.04;100.00;100267.78;10454590;28;20053;-70
2022/10/03 20:55:19;;;;;;;6.13;2.80;;;;;;;16.78;99.82;100233.84;10454760;28;19917;-69
2022/10/03 21:00:24;;;;;;;5.43;2.38;;;;;;;16.22;98.46;100147.75;10455559;28;20048;-70
2022/10/03 21:05:39;;;;;;;5.00;2.60;;;;;;;16.80;97.41;100226.38;10461876;28;20055;-69
2022/10/03 21:10:49;;;;;;;9.93;2.28;;;;;;;16.69;98.88;100240.41;10460906;28;20131;-69
2022/10/03 21:15:58;;;;;;;4.25;2.45;;;;;;;16.63;100.00;100235.88;10461209;28;20045;-70
2022/10/03 21:21:14;;;;;;;9.25;2.85;;;;;;;16.60;100.00;100261.28;10461859;28;20044;-69
2022/10/03 21:26:23;;;;;;;5.00;2.20;;;;;;;16.47;100.00;100265.84;10460834;28;20067;-69
2022/10/03 21:31:39;;;;;;;8.65;2.72;;;;;;;16.42;100.00;100264.63;10461739;28;20045;-69
2022/10/03 21:36:43;;;;;;;13.65;2.85;;;;;;;16.26;100.00;100265.03;10461418;28;20045;-69
2022/10/03 21:41:55;;;;;;;5.07;2.40;;;;;;;16.14;100.00;100270.19;10461045;28;20196;-69
2022/10/03 21:47:07;;;;;;;9.85;2.72;;;;;;;15.91;100.00;100227.75;10460617;28;20044;-69
2022/10/03 21:52:17;;;;;;;7.25;3.08;;;;;;;15.95;100.00;100249.59;10460337;28;20039;-69
2022/10/03 21:57:26;;;;;;;6.25;2.83;;;;;;;15.87;100.00;100253.28;10460195;28;20045;-69
2022/10/03 22:02:45;;;;;;;7.10;3.05;;;;;;;15.73;100.00;100271.19;10459502;28;20469;-70
2022/10/03 22:07:46;;;;;;;7.50;2.95;;;;;;;15.58;100.00;100261.63;10459911;28;20132;-69
2022/10/03 22:12:53;;;;;;;5.75;2.88;;;;;;;15.61;100.00;100263.91;10459271;28;20055;-69
2022/10/03 22:18:00;;;;;;;6.43;3.25;;;;;;;15.57;100.00;100265.34;10459527;28;20041;-69
2022/10/03 22:23:29;;;;;;;4.82;3.20;;;;;;;15.44;100.00;100264.28;10460250;28;20124;-69
2022/10/03 22:28:53;;;;;;;5.97;3.08;;;;;;;15.56;100.00;100283.28;10459585;28;20551;-69
2022/10/03 22:34:26;;;;;;;6.47;3.45;;;;;;;15.59;100.00;100304.28;10459550;28;20464;-69
2022/10/03 22:39:28;;;;;;;5.97;3.30;;;;;;;14.50;100.00;100149.06;10446199;28;20056;-69
2022/10/03 22:44:33;;;;;;;5.65;3.33;;;;;;;14.84;100.00;100201.72;10458330;28;20060;-69
2022/10/03 22:49:43;;;;;;;4.90;2.97;;;;;;;15.50;100.00;100300.97;10458615;28;20048;-69
2022/10/03 22:54:48;;;;;;;4.75;2.72;;;;;;;15.45;100.00;100318.66;10458222;28;20049;-69
2022/10/03 23:00:08;;;;;;;5.40;3.00;;;;;;;15.52;100.00;100300.75;10458455;28;20040;-69
2022/10/03 23:05:44;;;;;;;4.82;3.03;;;;;;;15.17;100.00;100241.16;10456135;28;20049;-69
2022/10/03 23:10:55;;;;;;;7.85;3.20;;;;;;;15.57;100.00;100290.28;10457536;28;20091;-69
2022/10/03 23:16:06;;;;;;;4.85;3.15;;;;;;;15.58;100.00;100267.81;10457890;28;20405;-69
2022/10/03 23:21:10;;;;;;;6.75;3.25;;;;;;;15.64;100.00;100276.91;10467805;28;20135;-69
2022/10/03 23:26:39;;;;;;;6.72;2.95;;;;;;;15.74;100.00;100237.19;10456248;28;20045;-69
2022/10/03 23:32:04;;;;;;;3.97;2.60;;;;;;;15.37;100.00;100167.06;10455982;28;20136;-69
2022/10/03 23:37:14;;;;;;;6.80;3.50;;;;;;;15.71;100.00;100208.16;10455686;28;20428;-69
2022/10/03 23:42:26;;;;;;;7.22;3.70;;;;;;;15.68;100.00;100204.03;10456679;28;20045;-69
2022/10/03 23:47:32;;;;;;;6.50;3.65;;;;;;;15.44;100.00;100146.50;10455750;28;20135;-69
2022/10/03 23:52:56;;;;;;;5.63;3.20;;;;;;;15.45;100.00;100172.25;10455563;28;20131;-69
2022/10/03 23:57:58;;;;;;;8.50;3.00;;;;;;;15.23;100.00;100138.66;10455405;28;20037;-69
